Time;durP1;ratioP1;P1;durP2;ratioP2;P2;SDS_P1;SDS_P2;PMS_P1;PMS_P2;Temp;Humidity;BMP_temperature;BMP_pressure;BME280_temperature;BME280_humidity;BME280_pressure;Samples;Min_cycle;Max_cycle;Signal;HPM_P1;HPM_P2
2022/01/27 00:01:34;;;;;;;32.53;19.70;;;3.50;99.90;;;;;;5092410;28;20816;-50
2022/01/27 00:04:11;;;;;;;29.80;19.97;;;3.50;99.90;;;;;;5091834;28;20537;-49
2022/01/27 00:06:39;;;;;;;34.57;21.77;;;3.50;99.90;;;;;;5090926;28;20455;-49
2022/01/27 00:09:13;;;;;;;33.00;20.70;;;3.60;99.30;;;;;;5091973;28;20948;-50
2022/01/27 00:11:43;;;;;;;27.60;19.27;;;3.60;99.90;;;;;;5101955;28;20471;-49
2022/01/27 00:14:13;;;;;;;27.90;19.57;;;3.60;99.90;;;;;;5104605;28;20932;-49
2022/01/27 00:16:42;;;;;;;28.30;19.10;;;3.60;99.90;;;;;;5109984;28;20504;-49
2022/01/27 00:19:10;;;;;;;28.63;18.27;;;3.50;99.30;;;;;;5099371;28;20837;-50
2022/01/27 00:21:38;;;;;;;29.33;19.60;;;3.60;99.90;;;;;;5095526;28;20507;-49
2022/01/27 00:24:05;;;;;;;26.27;18.03;;;3.60;99.10;;;;;;5103572;28;20455;-50
2022/01/27 00:26:32;;;;;;;26.03;17.27;;;3.60;99.90;;;;;;5112145;28;20482;-50
2022/01/27 00:31:27;;;;;;;23.77;16.80;;;3.60;96.20;;;;;;5026177;28;20490;-50
2022/01/27 00:33:55;;;;;;;25.90;17.53;;;3.60;96.50;;;;;;5029078;28;20517;-50
2022/01/27 00:36:22;;;;;;;22.97;16.17;;;3.60;91.60;;;;;;5030222;28;20494;-51
2022/01/27 00:38:50;;;;;;;27.20;16.70;;;3.60;94.60;;;;;;5028683;28;20979;-50
2022/01/27 00:41:19;;;;;;;26.23;17.20;;;3.60;99.90;;;;;;5028529;28;20497;-50
2022/01/27 00:43:46;;;;;;;26.63;16.47;;;3.60;99.90;;;;;;5028014;28;20462;-50
2022/01/27 00:46:16;;;;;;;21.77;15.07;;;3.60;99.90;;;;;;5025635;28;20489;-51
2022/01/27 00:48:45;;;;;;;25.20;17.37;;;3.60;99.90;;;;;;5026119;28;20492;-50
2022/01/27 00:51:14;;;;;;;25.40;17.43;;;3.70;99.90;;;;;;5022923;28;20494;-50
2022/01/27 00:53:47;;;;;;;25.00;17.37;;;3.70;99.90;;;;;;5029869;28;20463;-51
2022/01/27 00:56:22;;;;;;;22.00;15.83;;;3.70;99.90;;;;;;5030649;28;20446;-50
2022/01/27 00:58:58;;;;;;;22.00;15.83;;;3.60;99.90;;;;;;5034550;28;20462;-50
2022/01/27 01:01:30;;;;;;;24.37;17.93;;;3.70;99.90;;;;;;5030861;28;20546;-50
2022/01/27 01:04:01;;;;;;;24.37;16.80;;;3.70;99.90;;;;;;5032830;28;20520;-51
2022/01/27 01:06:37;;;;;;;22.10;15.20;;;3.70;99.90;;;;;;5032518;28;20947;-50
2022/01/27 01:09:58;;;;;;;22.67;15.57;;;3.70;99.90;;;;;;5031900;28;20462;-50
2022/01/27 01:13:16;;;;;;;24.70;16.30;;;3.60;99.90;;;;;;5029425;28;20568;-50
2022/01/27 01:15:30;;;;;;;28.07;19.20;;;3.60;96.70;;;;;;5031601;28;20447;-50
2022/01/27 01:18:04;;;;;;;23.30;16.33;;;3.60;98.20;;;;;;5032669;28;20567;-51
2022/01/27 01:31:44;;;;;;;26.60;16.93;;;3.60;75.40;;;;;;5031971;28;20524;-50
2022/01/27 01:34:17;;;;;;;29.53;17.67;;;3.50;76.70;;;;;;5033886;28;20963;-50
2022/01/27 01:36:56;;;;;;;28.17;18.00;;;3.60;71.50;;;;;;5022691;28;20463;-50
2022/01/27 01:39:23;;;;;;;24.67;16.77;;;3.50;75.60;;;;;;5031054;28;20561;-50
2022/01/27 01:41:50;;;;;;;32.83;19.13;;;3.60;74.70;;;;;;5031022;28;20470;-51
2022/01/27 01:44:16;;;;;;;30.47;17.00;;;3.50;79.40;;;;;;5030614;28;20546;-51
2022/01/27 01:46:43;;;;;;;26.53;17.00;;;3.50;74.20;;;;;;5029422;28;21089;-50
2022/01/27 01:49:10;;;;;;;28.50;18.60;;;3.50;73.50;;;;;;5033354;28;20474;-50
2022/01/27 01:51:39;;;;;;;23.03;16.00;;;3.50;78.60;;;;;;5030154;28;21062;-51
2022/01/27 01:54:08;;;;;;;24.50;16.57;;;3.50;76.30;;;;;;5032044;28;20494;-51
2022/01/27 01:56:36;;;;;;;21.40;14.50;;;3.50;75.10;;;;;;5030917;28;20546;-50
2022/01/27 01:59:05;;;;;;;23.73;16.80;;;3.50;75.00;;;;;;5029342;28;20549;-50
2022/01/27 02:01:33;;;;;;;26.20;16.37;;;3.50;71.10;;;;;;5029191;28;20451;-51
2022/01/27 02:04:04;;;;;;;26.20;16.97;;;3.50;72.80;;;;;;5030876;28;20497;-50
2022/01/27 02:06:35;;;;;;;24.70;17.63;;;3.50;71.20;;;;;;5031012;28;20458;-50
2022/01/27 02:09:16;;;;;;;22.90;16.73;;;3.50;70.60;;;;;;5040148;28;20954;-50
2022/01/27 02:20:00;;;;;;;27.00;15.87;;;3.50;62.30;;;;;;5030395;28;20479;-50
2022/01/27 02:22:27;;;;;;;19.67;13.97;;;3.50;63.70;;;;;;5029270;28;20536;-50
2022/01/27 02:24:54;;;;;;;21.27;14.67;;;3.50;72.30;;;;;;5027346;28;20897;-50
2022/01/27 02:27:21;;;;;;;21.30;15.13;;;3.50;77.30;;;;;;5029817;28;20964;-50
2022/01/27 02:29:49;;;;;;;19.57;14.57;;;3.50;69.30;;;;;;5029538;28;20581;-50
2022/01/27 02:32:18;;;;;;;20.00;14.00;;;3.50;63.00;;;;;;5028444;28;20482;-50
2022/01/27 02:34:45;;;;;;;19.90;13.70;;;3.50;68.80;;;;;;5027655;28;20467;-50
2022/01/27 02:37:13;;;;;;;22.37;14.87;;;3.50;68.10;;;;;;5030868;28;20491;-50
2022/01/27 02:39:40;;;;;;;18.23;14.17;;;3.50;71.20;;;;;;5028971;28;20983;-50
2022/01/27 02:42:11;;;;;;;19.30;13.50;;;3.50;70.20;;;;;;5029682;28;20537;-50
2022/01/27 02:44:45;;;;;;;19.33;14.60;;;3.50;56.70;;;;;;5030335;28;20558;-50
2022/01/27 02:47:11;;;;;;;19.40;14.27;;;3.50;58.30;;;;;;5026560;28;20455;-51
2022/01/27 02:49:38;;;;;;;18.60;13.97;;;3.50;57.90;;;;;;5028821;28;20557;-50
2022/01/27 02:52:05;;;;;;;19.57;13.83;;;3.50;57.60;;;;;;5027995;28;20570;-50
2022/01/27 02:54:33;;;;;;;22.50;14.40;;;3.50;60.00;;;;;;5030901;28;20995;-51
2022/01/27 02:57:00;;;;;;;19.83;13.90;;;3.50;58.90;;;;;;5029993;28;20553;-50
2022/01/27 02:59:27;;;;;;;17.40;14.53;;;3.50;57.90;;;;;;5028366;28;21055;-50
2022/01/27 03:01:54;;;;;;;21.33;14.40;;;3.60;59.50;;;;;;5027617;28;20498;-50
2022/01/27 03:04:22;;;;;;;24.23;15.10;;;3.60;68.00;;;;;;5030919;28;20458;-50
2022/01/27 03:06:49;;;;;;;17.20;13.07;;;3.60;71.10;;;;;;5029417;28;20601;-52
2022/01/27 03:09:16;;;;;;;20.00;13.97;;;3.60;81.00;;;;;;5031690;28;20563;-49
2022/01/27 03:11:47;;;;;;;20.87;14.70;;;3.60;81.40;;;;;;5031544;28;20561;-50
2022/01/27 03:14:15;;;;;;;15.27;13.03;;;3.60;79.00;;;;;;5029794;28;20542;-50
2022/01/27 03:16:43;;;;;;;20.87;14.00;;;3.60;89.00;;;;;;5029848;28;20455;-50
2022/01/27 03:19:10;;;;;;;17.10;12.57;;;3.70;86.80;;;;;;5028255;28;20879;-51
2022/01/27 03:21:37;;;;;;;18.00;14.13;;;3.70;81.00;;;;;;5029321;28;20487;-52
2022/01/27 03:24:04;;;;;;;18.57;12.77;;;3.70;89.30;;;;;;5030310;28;20516;-50
2022/01/27 03:26:30;;;;;;;19.07;13.23;;;3.70;89.30;;;;;;5024454;28;20466;-50
2022/01/27 03:28:59;;;;;;;15.40;12.30;;;3.80;89.50;;;;;;5030252;28;20485;-51
2022/01/27 03:31:26;;;;;;;16.43;13.03;;;3.80;90.80;;;;;;5029946;28;20489;-50
2022/01/27 03:33:53;;;;;;;16.13;13.33;;;3.80;87.40;;;;;;5028586;28;20558;-50
2022/01/27 03:36:20;;;;;;;19.77;13.53;;;3.80;90.30;;;;;;5028449;28;20542;-50
2022/01/27 03:38:47;;;;;;;19.37;12.30;;;3.70;83.00;;;;;;5028589;28;20502;-50
2022/01/27 03:41:19;;;;;;;21.73;13.27;;;3.80;78.70;;;;;;5028240;28;20633;-50
2022/01/27 03:43:46;;;;;;;19.50;12.90;;;3.70;75.30;;;;;;5031041;28;20446;-50
2022/01/27 03:46:14;;;;;;;16.60;11.67;;;3.80;79.20;;;;;;5027507;28;20558;-50
2022/01/27 03:48:41;;;;;;;15.13;12.50;;;3.70;69.00;;;;;;5029298;28;20459;-50
2022/01/27 03:51:08;;;;;;;15.83;13.10;;;3.70;66.10;;;;;;5027959;28;20573;-50
2022/01/27 03:53:34;;;;;;;13.90;12.00;;;3.70;51.50;;;;;;5031007;28;20601;-50
2022/01/27 03:56:02;;;;;;;14.30;12.20;;;3.70;48.70;;;;;;5025825;28;20554;-50
2022/01/27 03:58:28;;;;;;;16.27;12.90;;;3.70;46.40;;;;;;5029162;28;20557;-51
2022/01/27 04:00:55;;;;;;;19.60;12.67;;;3.70;38.40;;;;;;5025178;28;20474;-50
2022/01/27 04:03:23;;;;;;;19.47;12.50;;;3.70;33.40;;;;;;5028199;28;20557;-52
2022/01/27 04:05:51;;;;;;;19.90;13.53;;;3.70;28.60;;;;;;5028623;28;20474;-50
2022/01/27 04:08:18;;;;;;;14.60;11.57;;;3.70;28.60;;;;;;5024406;28;20467;-50
2022/01/27 04:10:45;;;;;;;14.00;10.90;;;3.70;21.80;;;;;;5024985;28;20482;-50
2022/01/27 04:13:11;;;;;;;18.13;12.13;;;3.70;99.90;;;;;;5030955;28;20455;-50
2022/01/27 04:15:40;;;;;;;17.03;12.17;;;3.70;99.90;;;;;;5026129;28;20550;-50
2022/01/27 04:18:07;;;;;;;22.60;11.63;;;3.70;99.90;;;;;;5027744;28;20550;-50
2022/01/27 04:20:35;;;;;;;18.50;12.90;;;3.70;99.90;;;;;;5026588;28;20536;-51
2022/01/27 04:23:01;;;;;;;16.60;12.57;;;3.70;99.90;;;;;;5024250;28;20554;-50
2022/01/27 04:25:28;;;;;;;14.10;11.33;;;3.70;99.90;;;;;;5026413;28;21144;-51
2022/01/27 04:27:59;;;;;;;19.13;12.67;;;3.70;99.90;;;;;;5030948;28;20564;-50
2022/01/27 04:30:26;;;;;;;12.80;10.83;;;3.70;99.90;;;;;;5020985;28;21036;-50
2022/01/27 04:32:56;;;;;;;14.40;11.80;;;3.70;99.90;;;;;;5028873;28;20483;-50
2022/01/27 04:35:26;;;;;;;14.70;11.60;;;3.80;99.90;;;;;;5022637;28;20513;-50
2022/01/27 04:38:03;;;;;;;13.63;11.57;;;3.80;99.90;;;;;;5030652;28;20940;-50
2022/01/27 04:40:35;;;;;;;13.37;11.30;;;3.80;27.60;;;;;;5026806;28;20479;-50
2022/01/27 04:43:08;;;;;;;14.27;10.83;;;3.80;27.20;;;;;;5028732;28;20843;-49
2022/01/27 04:45:43;;;;;;;12.10;10.90;;;3.90;32.30;;;;;;5028011;28;20520;-50
2022/01/27 04:48:13;;;;;;;12.30;10.40;;;3.90;42.10;;;;;;5029567;28;20824;-51
2022/01/27 04:50:40;;;;;;;11.20;9.97;;;3.90;62.30;;;;;;5028114;28;20482;-51
2022/01/27 04:53:14;;;;;;;15.30;11.43;;;4.00;99.20;;;;;;5024034;28;20589;-51
2022/01/27 04:55:40;;;;;;;15.60;9.90;;;4.00;99.90;;;;;;5026216;28;20997;-50
2022/01/27 04:58:09;;;;;;;12.47;9.47;;;4.10;99.90;;;;;;5028702;28;20508;-50
2022/01/27 05:00:36;;;;;;;13.30;9.40;;;4.10;99.90;;;;;;5026154;28;20482;-50
2022/01/27 05:03:13;;;;;;;12.00;8.93;;;4.20;99.90;;;;;;5028155;28;21017;-51
2022/01/27 05:05:39;;;;;;;9.87;8.87;;;4.20;99.90;;;;;;5028783;28;20512;-50
2022/01/27 05:08:11;;;;;;;8.87;7.80;;;4.20;99.90;;;;;;5027016;28;20483;-50
2022/01/27 05:10:37;;;;;;;9.57;8.67;;;4.30;99.90;;;;;;5025183;28;20500;-50
2022/01/27 05:13:09;;;;;;;11.00;8.67;;;4.30;99.90;;;;;;5029650;28;20561;-51
2022/01/27 05:15:42;;;;;;;10.63;8.90;;;4.30;99.90;;;;;;5026736;28;20904;-50
2022/01/27 05:18:09;;;;;;;11.70;10.00;;;4.30;99.90;;;;;;5025513;28;20455;-51
2022/01/27 05:20:36;;;;;;;9.40;8.60;;;4.30;99.90;;;;;;5027882;28;20582;-51
2022/01/27 05:23:02;;;;;;;10.77;9.07;;;4.30;99.90;;;;;;5018423;28;20497;-50
2022/01/27 05:25:30;;;;;;;11.57;9.60;;;4.30;99.90;;;;;;5027377;28;20545;-50
2022/01/27 05:27:57;;;;;;;10.30;8.23;;;4.30;99.90;;;;;;5024873;28;20553;-50
2022/01/27 05:30:24;;;;;;;12.20;9.47;;;4.30;99.90;;;;;;5026131;28;20586;-51
2022/01/27 05:32:50;;;;;;;13.30;8.90;;;4.30;99.90;;;;;;5030809;28;20570;-50
2022/01/27 05:35:17;;;;;;;10.03;9.03;;;4.30;99.90;;;;;;5029173;28;20498;-50
2022/01/27 05:37:43;;;;;;;12.00;8.67;;;4.40;99.90;;;;;;5032486;28;20474;-50
2022/01/27 05:40:11;;;;;;;10.43;9.33;;;4.30;99.90;;;;;;5029398;28;20670;-50
2022/01/27 05:42:39;;;;;;;11.63;9.00;;;4.40;99.90;;;;;;5031859;28;20546;-50
2022/01/27 05:45:07;;;;;;;9.87;8.70;;;4.40;99.90;;;;;;5030134;28;20937;-51
2022/01/27 05:47:33;;;;;;;11.63;8.47;;;4.40;99.90;;;;;;5031021;28;20545;-50
2022/01/27 05:50:00;;;;;;;9.37;7.87;;;4.40;99.90;;;;;;5031276;28;20566;-50
2022/01/27 05:52:26;;;;;;;9.53;8.70;;;4.30;99.90;;;;;;5029878;28;20569;-50
2022/01/27 05:54:53;;;;;;;11.33;8.97;;;4.30;99.90;;;;;;5030495;28;20554;-50
2022/01/27 05:57:19;;;;;;;9.00;8.10;;;4.20;99.90;;;;;;5029886;28;21028;-50
2022/01/27 05:59:47;;;;;;;10.33;8.37;;;4.20;99.90;;;;;;5028131;28;20914;-51
2022/01/27 06:02:14;;;;;;;14.10;9.77;;;4.20;99.90;;;;;;5030180;28;20546;-50
2022/01/27 06:04:40;;;;;;;9.77;8.80;;;4.20;99.90;;;;;;5029213;28;20557;-50
2022/01/27 06:07:07;;;;;;;9.57;8.57;;;4.10;99.90;;;;;;5028470;28;21071;-50
2022/01/27 06:09:34;;;;;;;9.53;8.43;;;4.10;99.90;;;;;;5026539;28;21082;-51
2022/01/27 06:12:00;;;;;;;9.93;8.90;;;4.20;99.90;;;;;;5030284;28;21088;-51
2022/01/27 06:14:27;;;;;;;10.73;9.60;;;4.30;99.90;;;;;;5025413;28;20583;-50
2022/01/27 06:16:54;;;;;;;13.90;11.07;;;4.30;99.90;;;;;;5026716;28;20557;-50
2022/01/27 06:19:26;;;;;;;14.53;10.80;;;4.20;99.90;;;;;;5029813;28;20506;-50
2022/01/27 06:21:52;;;;;;;14.07;11.97;;;4.10;99.90;;;;;;5033466;28;20541;-50
2022/01/27 06:24:19;;;;;;;15.27;12.53;;;4.00;99.90;;;;;;5029460;28;20890;-50
2022/01/27 06:26:45;;;;;;;15.10;12.63;;;3.90;99.90;;;;;;5024545;28;20920;-50
2022/01/27 06:29:12;;;;;;;13.87;12.37;;;3.90;99.90;;;;;;5029064;28;20612;-51
2022/01/27 06:31:38;;;;;;;18.93;14.83;;;3.80;99.90;;;;;;5038281;22;20479;-51
2022/01/27 06:34:06;;;;;;;21.27;15.17;;;3.90;99.90;;;;;;5028940;28;20513;-51
2022/01/27 06:36:33;;;;;;;20.50;14.80;;;3.90;99.90;;;;;;5026701;28;20462;-51
2022/01/27 06:38:59;;;;;;;21.20;16.53;;;3.90;99.90;;;;;;5026924;28;20542;-53
2022/01/27 06:41:26;;;;;;;22.30;18.00;;;3.90;99.90;;;;;;5027249;28;20578;-53
2022/01/27 06:43:54;;;;;;;21.10;16.67;;;4.00;99.90;;;;;;5028767;28;20499;-53
2022/01/27 06:46:20;;;;;;;23.57;17.70;;;4.00;99.90;;;;;;5028635;28;20467;-53
2022/01/27 06:48:47;;;;;;;21.10;17.13;;;4.00;99.90;;;;;;5025499;28;20497;-52
2022/01/27 06:51:15;;;;;;;24.67;19.20;;;4.00;99.90;;;;;;5027278;28;20875;-51
2022/01/27 06:53:41;;;;;;;28.60;19.07;;;4.00;99.90;;;;;;5028698;28;20522;-51
2022/01/27 06:56:08;;;;;;;25.43;19.90;;;4.00;99.90;;;;;;5027068;28;21019;-53
2022/01/27 06:58:36;;;;;;;27.50;20.27;;;4.00;99.90;;;;;;5027272;28;20551;-53
2022/01/27 07:01:02;;;;;;;25.30;19.80;;;4.00;99.90;;;;;;5027618;28;20478;-53
2022/01/27 07:03:29;;;;;;;28.20;21.70;;;4.00;99.90;;;;;;5024286;28;20451;-53
2022/01/27 07:05:55;;;;;;;26.70;20.67;;;4.00;99.90;;;;;;5019292;28;20484;-53
2022/01/27 07:08:23;;;;;;;32.17;22.07;;;4.00;99.90;;;;;;5030962;28;21021;-52
2022/01/27 07:10:50;;;;;;;27.00;21.23;;;4.00;93.70;;;;;;5030533;28;20561;-53
2022/01/27 07:13:16;;;;;;;29.27;21.40;;;4.00;75.50;;;;;;5029447;28;20573;-53
2022/01/27 07:15:43;;;;;;;29.37;21.83;;;4.00;99.90;;;;;;5031892;28;21039;-53
2022/01/27 07:18:10;;;;;;;27.20;21.63;;;4.10;90.50;;;;;;5031222;28;20451;-53
2022/01/27 07:20:37;;;;;;;28.17;21.83;;;4.10;99.90;;;;;;5023704;28;20987;-53
2022/01/27 07:23:06;;;;;;;29.50;22.07;;;4.20;99.90;;;;;;5031061;28;20449;-57
2022/01/27 07:25:34;;;;;;;36.17;26.97;;;4.30;43.90;;;;;;5021887;28;20542;-52
2022/01/27 07:28:01;;;;;;;32.80;23.83;;;4.20;43.00;;;;;;5018389;28;20520;-52
2022/01/27 07:30:28;;;;;;;32.77;24.70;;;4.20;34.60;;;;;;5026741;28;20498;-52
2022/01/27 07:32:54;;;;;;;31.97;24.07;;;4.10;36.50;;;;;;5026286;28;20577;-53
2022/01/27 07:35:21;;;;;;;29.83;23.47;;;4.10;42.50;;;;;;5029819;28;20545;-53
2022/01/27 07:37:47;;;;;;;33.90;24.70;;;4.10;49.10;;;;;;5023587;28;20549;-53
2022/01/27 07:40:14;;;;;;;41.47;26.03;;;4.10;37.80;;;;;;5016697;28;20483;-53
2022/01/27 07:42:42;;;;;;;32.63;23.97;;;4.10;37.80;;;;;;5024295;28;20637;-53
2022/01/27 07:45:09;;;;;;;33.77;25.20;;;4.10;30.70;;;;;;5029752;28;20887;-54
2022/01/27 07:47:36;;;;;;;31.70;25.13;;;4.00;75.60;;;;;;5026667;28;20489;-53
2022/01/27 07:50:04;;;;;;;35.73;25.50;;;3.90;99.90;;;;;;5020664;28;20517;-52
2022/01/27 07:52:30;;;;;;;30.30;23.70;;;4.00;99.90;;;;;;5029762;28;20570;-54
2022/01/27 07:54:57;;;;;;;35.27;24.53;;;3.90;99.90;;;;;;5027027;28;20557;-53
2022/01/27 07:57:24;;;;;;;35.30;25.10;;;3.90;99.90;;;;;;5023901;28;20459;-52
2022/01/27 07:59:52;;;;;;;30.20;24.23;;;3.80;99.90;;;;;;5028391;28;20545;-53
2022/01/27 08:02:18;;;;;;;30.80;24.27;;;3.80;99.90;;;;;;5025812;28;20507;-52
2022/01/27 08:04:46;;;;;;;33.97;25.07;;;3.70;99.90;;;;;;5024903;28;20367;-52
2022/01/27 08:07:12;;;;;;;33.13;24.80;;;3.70;99.90;;;;;;5017365;28;20455;-51
2022/01/27 08:09:39;;;;;;;31.90;25.20;;;3.60;99.90;;;;;;5024991;28;20542;-50
2022/01/27 08:12:06;;;;;;;36.87;26.47;;;3.60;99.90;;;;;;5027340;28;20518;-49
2022/01/27 08:14:33;;;;;;;34.43;25.50;;;3.60;99.90;;;;;;5029938;28;21038;-49
2022/01/27 08:17:01;;;;;;;37.57;26.67;;;3.60;99.90;;;;;;5028566;28;20554;-50
2022/01/27 08:19:27;;;;;;;37.33;25.33;;;3.60;99.90;;;;;;5029205;28;20466;-52
2022/01/27 08:21:54;;;;;;;32.63;24.80;;;3.60;99.90;;;;;;5022212;28;21138;-52
2022/01/27 08:24:20;;;;;;;31.87;25.23;;;3.60;99.90;;;;;;5025875;28;20553;-49
2022/01/27 08:26:49;;;;;;;33.87;24.70;;;3.70;99.90;;;;;;5027024;28;20524;-51
2022/01/27 08:29:20;;;;;;;31.10;24.17;;;3.70;99.90;;;;;;5022723;28;20466;-49
2022/01/27 08:31:59;;;;;;;30.07;23.30;;;3.70;99.90;;;;;;5019730;28;20481;-50
2022/01/27 08:34:31;;;;;;;32.03;24.30;;;3.80;99.90;;;;;;5027120;28;20463;-52
2022/01/27 08:36:59;;;;;;;34.97;24.97;;;3.80;99.90;;;;;;5020713;28;20513;-52
2022/01/27 08:39:26;;;;;;;32.87;23.70;;;3.80;20.70;;;;;;5021265;28;20556;-51
2022/01/27 08:41:53;;;;;;;33.37;23.37;;;3.90;36.50;;;;;;5027156;28;20478;-50
2022/01/27 08:44:20;;;;;;;29.13;22.50;;;3.90;28.70;;;;;;5027351;28;20451;-51
2022/01/27 08:46:47;;;;;;;27.23;22.57;;;3.90;29.50;;;;;;5025917;28;20467;-50
2022/01/27 08:49:17;;;;;;;34.57;23.10;;;3.90;35.50;;;;;;5025504;28;20465;-50
2022/01/27 08:51:45;;;;;;;36.23;25.57;;;3.90;39.20;;;;;;5023635;28;20897;-50
2022/01/27 08:54:12;;;;;;;35.87;25.60;;;3.90;38.00;;;;;;5027784;28;20490;-51
2022/01/27 08:56:39;;;;;;;33.83;25.03;;;3.90;37.80;;;;;;5021380;28;20517;-50
2022/01/27 08:59:06;;;;;;;35.43;25.63;;;3.90;41.60;;;;;;5026131;28;20541;-51
2022/01/27 09:01:33;;;;;;;38.23;24.13;;;3.90;43.70;;;;;;5024770;28;20505;-50
2022/01/27 09:04:01;;;;;;;34.33;23.87;;;3.90;56.50;;;;;;5024525;28;20459;-51
2022/01/27 09:06:28;;;;;;;33.53;24.13;;;3.90;57.90;;;;;;5028221;28;20458;-51
2022/01/27 09:08:59;;;;;;;35.13;24.60;;;3.90;60.40;;;;;;5024425;28;20559;-51
2022/01/27 09:11:28;;;;;;;33.40;23.80;;;3.90;50.50;;;;;;5022627;28;21027;-51
2022/01/27 09:13:55;;;;;;;38.43;25.03;;;3.90;54.30;;;;;;5028691;28;20478;-50
2022/01/27 09:16:23;;;;;;;36.83;24.57;;;3.90;62.40;;;;;;5031415;28;20536;-51
2022/01/27 09:18:50;;;;;;;37.40;25.17;;;3.90;58.50;;;;;;5028265;28;20527;-52
2022/01/27 09:21:22;;;;;;;34.30;23.67;;;3.90;64.00;;;;;;5024398;28;21057;-56
2022/01/27 09:23:49;;;;;;;32.67;24.47;;;3.90;68.20;;;;;;5032500;28;20462;-51
2022/01/27 09:26:39;;;;;;;35.13;24.67;;;3.90;57.30;;;;;;5032062;28;20458;-52
2022/01/27 09:29:06;;;;;;;33.40;24.30;;;3.90;48.90;;;;;;5031014;28;20530;-52
2022/01/27 09:31:32;;;;;;;30.60;22.80;;;3.90;51.40;;;;;;5035252;28;20491;-52
2022/01/27 09:33:59;;;;;;;30.57;23.30;;;3.90;44.20;;;;;;5034267;28;20532;-52
2022/01/27 09:36:26;;;;;;;31.90;24.00;;;3.90;33.80;;;;;;5030542;28;20555;-52
2022/01/27 09:38:52;;;;;;;35.43;24.27;;;3.80;99.90;;;;;;5031813;28;20928;-51
2022/01/27 09:41:22;;;;;;;26.90;21.90;;;3.70;99.90;;;;;;5029762;28;21016;-52
2022/01/27 09:43:52;;;;;;;29.17;21.97;;;3.60;99.90;;;;;;5032933;28;20490;-52
2022/01/27 09:46:21;;;;;;;29.63;21.83;;;3.50;99.90;;;;;;5032144;28;20469;-52
2022/01/27 09:48:49;;;;;;;28.70;21.17;;;3.50;99.90;;;;;;5032135;28;21090;-52
2022/01/27 09:51:23;;;;;;;33.20;21.63;;;3.40;90.20;;;;;;5032722;28;20878;-52
2022/01/27 09:53:51;;;;;;;28.13;21.00;;;3.30;53.10;;;;;;5034369;28;20505;-52
2022/01/27 09:56:19;;;;;;;27.70;20.10;;;3.30;50.70;;;;;;5031663;28;20487;-52
2022/01/27 09:58:46;;;;;;;32.13;21.20;;;3.30;76.20;;;;;;5034543;28;20499;-54
2022/01/27 10:01:13;;;;;;;33.47;21.50;;;3.30;21.00;;;;;;5032015;28;20522;-57
2022/01/27 10:03:53;;;;;;;27.07;20.40;;;3.20;99.90;;;;;;5030406;28;20455;-52
2022/01/27 10:06:21;;;;;;;32.60;22.70;;;3.20;99.90;;;;;;5021404;28;20513;-52
2022/01/27 10:09:14;;;;;;;25.27;19.13;;;3.20;99.90;;;;;;5022749;28;20514;-52
2022/01/27 10:11:43;;;;;;;27.03;20.30;;;3.20;99.90;;;;;;5029652;28;20482;-51
2022/01/27 10:14:21;;;;;;;29.83;20.30;;;3.20;99.90;;;;;;5025106;28;20470;-51
2022/01/27 10:16:49;;;;;;;29.70;20.73;;;3.20;99.90;;;;;;5027837;28;20462;-51
2022/01/27 10:19:17;;;;;;;29.07;20.43;;;3.20;99.90;;;;;;5031560;28;20517;-52
2022/01/27 10:21:44;;;;;;;30.13;21.33;;;3.20;99.90;;;;;;5029815;28;21070;-52
2022/01/27 10:24:22;;;;;;;30.60;20.70;;;3.20;99.90;;;;;;5024402;28;22582;-52
2022/01/27 10:27:20;;;;;;;29.70;20.17;;;3.20;99.90;;;;;;5026970;28;20470;-53
2022/01/27 10:30:04;;;;;;;23.80;18.40;;;3.20;99.90;;;;;;5026479;28;20843;-53
2022/01/27 10:32:39;;;;;;;29.10;20.13;;;3.30;99.90;;;;;;5029115;28;20455;-50
2022/01/27 10:35:07;;;;;;;26.97;19.90;;;3.30;99.90;;;;;;5027121;28;20490;-49
2022/01/27 10:37:56;;;;;;;26.20;19.13;;;3.30;99.90;;;;;;5023541;28;20448;-49
2022/01/27 10:40:25;;;;;;;27.40;20.40;;;3.30;99.90;;;;;;5026518;28;20569;-49
2022/01/27 10:43:09;;;;;;;24.23;18.10;;;3.30;99.90;;;;;;5030727;28;20506;-49
2022/01/27 10:45:37;;;;;;;27.00;18.10;;;3.30;99.90;;;;;;5027180;28;20483;-52
2022/01/27 10:48:17;;;;;;;32.50;22.33;;;3.40;99.90;;;;;;5030816;28;20509;-52
2022/01/27 10:50:50;;;;;;;26.30;18.80;;;3.40;99.90;;;;;;5025709;28;20491;-52
2022/01/27 10:53:18;;;;;;;26.73;18.37;;;3.40;99.90;;;;;;5024351;28;20482;-52
2022/01/27 10:55:45;;;;;;;29.70;20.23;;;3.40;99.90;;;;;;5029712;28;20455;-52
2022/01/27 10:58:26;;;;;;;29.23;19.50;;;3.40;99.90;;;;;;5029761;28;20899;-51
2022/01/27 11:00:58;;;;;;;29.13;20.90;;;3.40;99.90;;;;;;5023281;28;21038;-52
2022/01/27 11:03:25;;;;;;;26.90;20.90;;;3.40;99.90;;;;;;5026373;28;20458;-51
2022/01/27 11:05:51;;;;;;;26.20;18.60;;;3.50;99.90;;;;;;5021597;28;20482;-50
2022/01/27 11:08:20;;;;;;;25.13;19.23;;;3.50;99.90;;;;;;5024454;28;20886;-50
2022/01/27 11:10:49;;;;;;;28.70;19.50;;;3.50;99.90;;;;;;5026584;28;20530;-50
2022/01/27 11:13:17;;;;;;;26.40;19.10;;;3.50;99.90;;;;;;5028975;28;20491;-51
2022/01/27 11:15:46;;;;;;;25.70;19.50;;;3.50;99.90;;;;;;5030520;28;20829;-51
2022/01/27 11:18:14;;;;;;;27.23;19.67;;;3.50;99.90;;;;;;5030692;28;20521;-51
2022/01/27 11:20:53;;;;;;;26.53;18.50;;;3.50;99.90;;;;;;5026819;28;20482;-51
2022/01/27 11:23:47;;;;;;;24.90;17.20;;;3.50;99.90;;;;;;5019916;28;20874;-51
2022/01/27 11:26:19;;;;;;;22.10;16.83;;;3.50;99.90;;;;;;5023221;28;20447;-51
2022/01/27 11:28:47;;;;;;;25.00;17.80;;;3.50;99.90;;;;;;5030266;28;20459;-50
2022/01/27 11:31:25;;;;;;;22.77;16.67;;;3.50;99.90;;;;;;5026389;28;20909;-52
2022/01/27 11:34:01;;;;;;;24.87;18.27;;;3.50;99.90;;;;;;5026153;28;20470;-51
2022/01/27 11:36:29;;;;;;;21.60;16.17;;;3.60;99.90;;;;;;5020042;28;20479;-51
2022/01/27 11:38:57;;;;;;;21.33;16.33;;;3.60;99.90;;;;;;5029326;28;20491;-50
2022/01/27 11:41:43;;;;;;;22.07;16.47;;;3.60;99.90;;;;;;5029667;28;20908;-51
2022/01/27 11:44:28;;;;;;;26.50;16.90;;;3.60;99.90;;;;;;5028636;28;20449;-52
2022/01/27 11:47:19;;;;;;;19.17;15.43;;;3.60;99.90;;;;;;5025183;28;20489;-51
2022/01/27 11:49:55;;;;;;;22.30;14.90;;;3.60;99.90;;;;;;5022787;28;20542;-51
2022/01/27 11:52:24;;;;;;;20.43;15.80;;;3.60;99.90;;;;;;5025122;28;20451;-50
2022/01/27 11:54:51;;;;;;;20.27;15.17;;;3.70;99.90;;;;;;5024469;28;21245;-50
2022/01/27 11:57:43;;;;;;;21.77;15.63;;;3.70;99.90;;;;;;5027647;28;20458;-50
2022/01/27 12:00:12;;;;;;;23.13;15.60;;;3.70;99.90;;;;;;5022758;28;20458;-50
2022/01/27 12:03:13;;;;;;;18.83;15.10;;;3.70;99.90;;;;;;5025149;28;20522;-52
2022/01/27 12:05:41;;;;;;;20.17;15.70;;;3.70;99.90;;;;;;5030575;28;20488;-51
2022/01/27 12:08:24;;;;;;;18.77;14.80;;;3.80;99.90;;;;;;5013492;28;20448;-53
2022/01/27 12:10:55;;;;;;;17.63;13.30;;;3.80;97.00;;;;;;5031903;28;20467;-52
2022/01/27 12:13:57;;;;;;;19.97;12.90;;;3.90;99.90;;;;;;5031717;28;20538;-52
2022/01/27 12:16:51;;;;;;;20.20;13.37;;;3.90;99.90;;;;;;5032065;28;20505;-52
2022/01/27 12:19:19;;;;;;;19.70;13.63;;;3.90;99.90;;;;;;5023835;28;21211;-52
2022/01/27 12:22:00;;;;;;;14.37;11.97;;;4.00;99.90;;;;;;5031161;28;20549;-53
2022/01/27 12:24:28;;;;;;;16.83;13.03;;;4.00;99.90;;;;;;5030853;28;21040;-52
2022/01/27 12:26:57;;;;;;;18.03;12.03;;;4.10;99.90;;;;;;5031632;28;20439;-51
2022/01/27 12:29:27;;;;;;;18.03;13.00;;;4.10;99.90;;;;;;5031143;28;20442;-49
2022/01/27 12:31:56;;;;;;;15.40;11.07;;;4.10;99.90;;;;;;5030969;28;21019;-51
2022/01/27 12:34:24;;;;;;;18.43;13.27;;;4.20;99.90;;;;;;5031380;28;20537;-49
2022/01/27 12:37:00;;;;;;;15.40;12.03;;;4.20;99.90;;;;;;5030522;28;20447;-49
2022/01/27 12:39:28;;;;;;;16.60;11.40;;;4.20;95.80;;;;;;5028911;28;20486;-49
2022/01/27 12:41:55;;;;;;;18.67;12.20;;;4.30;99.90;;;;;;5028586;28;20548;-49
2022/01/27 12:44:22;;;;;;;15.23;10.70;;;4.30;99.90;;;;;;5029881;28;20463;-49
2022/01/27 12:47:07;;;;;;;11.40;9.30;;;4.30;99.90;;;;;;5025469;28;20459;-50
2022/01/27 12:49:40;;;;;;;12.93;11.50;;;4.30;98.60;;;;;;5032218;28;20459;-49
2022/01/27 12:52:09;;;;;;;11.13;9.80;;;4.40;99.00;;;;;;5034765;28;20466;-50
2022/01/27 12:54:36;;;;;;;11.83;9.10;;;4.40;97.90;;;;;;5029582;28;20478;-50
2022/01/27 12:57:04;;;;;;;9.50;8.50;;;4.50;88.90;;;;;;5034450;28;21022;-51
2022/01/27 12:59:32;;;;;;;9.50;7.23;;;4.50;88.70;;;;;;5033272;28;20505;-51
2022/01/27 13:02:00;;;;;;;8.10;7.23;;;4.50;88.30;;;;;;5034688;28;20474;-51
2022/01/27 13:04:27;;;;;;;8.30;7.50;;;4.60;88.10;;;;;;5034740;28;20454;-50
2022/01/27 13:06:56;;;;;;;7.07;6.37;;;4.70;86.00;;;;;;5032174;28;20494;-51
2022/01/27 13:09:25;;;;;;;6.27;5.67;;;4.80;86.30;;;;;;5035205;28;20451;-50
2022/01/27 13:11:54;;;;;;;5.03;4.63;;;4.80;88.00;;;;;;5033706;28;20482;-49
2022/01/27 13:14:21;;;;;;;6.47;5.33;;;4.90;99.90;;;;;;5035292;28;20494;-49